Terminal Aerodrome Forecast
Issued by NWS Bismarck, ND

Home | Current Version | Previous Version | Text Only | Print | Product List | Glossary On
Versions: 1 2 3 4 5 6 7 8 9 10 11 12 13 14 15 16 17 18 19 20 21 22 23
000
FTUS43 KBIS 051446 AAB
TAFISN
TAF AMD
KISN 051446Z 0515/0612 03009KT 5SM -TSRA OVC010CB
      TEMPO 0515/0517 BKN007CB
     FM051700 09010KT P6SM BKN025
     FM052100 08009KT P6SM VCTS BKN035CB
     FM060300 05010KT P6SM SHRA BKN045
     FM060700 35007KT P6SM SHRA OVC010=

USA.gov is the U.S. government's official web portal to all federal, state and local government web resources and services.